sensor_id;sensor_type;location;lat;lon;timestamp;P1;durP1;ratioP1;P2;durP2;ratioP2
13040;SDS011;6587;42.728;23.288;2023-04-03T00:00:38;26.50;;;13.50;;
13040;SDS011;6587;42.728;23.288;2023-04-03T00:03:04;25.50;;;13.37;;
13040;SDS011;6587;42.728;23.288;2023-04-03T00:05:31;25.27;;;13.47;;
13040;SDS011;6587;42.728;23.288;2023-04-03T00:07:57;22.83;;;12.40;;
13040;SDS011;6587;42.728;23.288;2023-04-03T00:10:24;18.07;;;10.93;;
13040;SDS011;6587;42.728;23.288;2023-04-03T00:12:51;18.97;;;9.90;;
13040;SDS011;6587;42.728;23.288;2023-04-03T00:15:19;19.43;;;11.03;;
13040;SDS011;6587;42.728;23.288;2023-04-03T00:17:45;17.50;;;9.73;;
13040;SDS011;6587;42.728;23.288;2023-04-03T00:20:12;21.03;;;11.93;;
13040;SDS011;6587;42.728;23.288;2023-04-03T00:22:39;25.87;;;12.50;;
13040;SDS011;6587;42.728;23.288;2023-04-03T00:25:06;22.87;;;13.27;;
13040;SDS011;6587;42.728;23.288;2023-04-03T00:27:32;30.97;;;15.20;;
13040;SDS011;6587;42.728;23.288;2023-04-03T00:29:59;25.83;;;13.33;;
13040;SDS011;6587;42.728;23.288;2023-04-03T00:32:27;33.30;;;14.77;;
13040;SDS011;6587;42.728;23.288;2023-04-03T00:34:54;39.83;;;18.90;;
13040;SDS011;6587;42.728;23.288;2023-04-03T00:37:20;34.70;;;16.50;;
13040;SDS011;6587;42.728;23.288;2023-04-03T00:39:47;42.03;;;20.57;;
13040;SDS011;6587;42.728;23.288;2023-04-03T00:42:14;27.87;;;15.53;;
13040;SDS011;6587;42.728;23.288;2023-04-03T00:47:28;22.73;;;10.73;;
13040;SDS011;6587;42.728;23.288;2023-04-03T00:49:56;18.47;;;10.60;;
13040;SDS011;6587;42.728;23.288;2023-04-03T00:52:23;13.50;;;8.63;;
13040;SDS011;6587;42.728;23.288;2023-04-03T00:54:52;14.23;;;7.30;;
13040;SDS011;6587;42.728;23.288;2023-04-03T00:57:21;18.60;;;9.70;;
13040;SDS011;6587;42.728;23.288;2023-04-03T00:59:48;19.10;;;8.87;;
13040;SDS011;6587;42.728;23.288;2023-04-03T01:02:15;12.60;;;6.97;;
13040;SDS011;6587;42.728;23.288;2023-04-03T01:04:44;17.70;;;9.10;;
13040;SDS011;6587;42.728;23.288;2023-04-03T01:07:14;12.87;;;7.83;;
13040;SDS011;6587;42.728;23.288;2023-04-03T01:09:41;13.87;;;7.73;;
13040;SDS011;6587;42.728;23.288;2023-04-03T01:12:15;21.07;;;10.47;;
13040;SDS011;6587;42.728;23.288;2023-04-03T01:14:42;13.40;;;7.90;;
13040;SDS011;6587;42.728;23.288;2023-04-03T01:17:23;10.57;;;6.20;;
13040;SDS011;6587;42.728;23.288;2023-04-03T01:19:54;6.83;;;5.10;;
13040;SDS011;6587;42.728;23.288;2023-04-03T01:22:23;7.53;;;5.07;;
13040;SDS011;6587;42.728;23.288;2023-04-03T01:24:52;6.73;;;4.83;;
13040;SDS011;6587;42.728;23.288;2023-04-03T01:27:19;10.50;;;5.90;;
13040;SDS011;6587;42.728;23.288;2023-04-03T01:29:46;17.00;;;9.17;;
13040;SDS011;6587;42.728;23.288;2023-04-03T01:32:14;13.10;;;7.70;;
13040;SDS011;6587;42.728;23.288;2023-04-03T01:34:41;9.90;;;6.10;;
13040;SDS011;6587;42.728;23.288;2023-04-03T01:37:08;7.90;;;5.83;;
13040;SDS011;6587;42.728;23.288;2023-04-03T01:39:34;12.27;;;7.00;;
13040;SDS011;6587;42.728;23.288;2023-04-03T01:42:01;11.27;;;6.13;;
13040;SDS011;6587;42.728;23.288;2023-04-03T01:44:32;9.60;;;6.57;;
13040;SDS011;6587;42.728;23.288;2023-04-03T01:46:59;10.70;;;5.90;;
13040;SDS011;6587;42.728;23.288;2023-04-03T01:49:28;6.20;;;4.10;;
13040;SDS011;6587;42.728;23.288;2023-04-03T01:51:56;6.70;;;4.03;;
13040;SDS011;6587;42.728;23.288;2023-04-03T01:54:22;9.17;;;6.37;;
13040;SDS011;6587;42.728;23.288;2023-04-03T01:56:49;11.43;;;5.97;;
13040;SDS011;6587;42.728;23.288;2023-04-03T01:59:17;6.60;;;4.73;;
13040;SDS011;6587;42.728;23.288;2023-04-03T02:01:44;8.53;;;5.20;;
13040;SDS011;6587;42.728;23.288;2023-04-03T02:04:12;7.43;;;4.90;;
13040;SDS011;6587;42.728;23.288;2023-04-03T02:06:40;7.00;;;4.13;;
13040;SDS011;6587;42.728;23.288;2023-04-03T02:09:06;5.97;;;3.73;;
13040;SDS011;6587;42.728;23.288;2023-04-03T02:11:33;6.93;;;4.97;;
13040;SDS011;6587;42.728;23.288;2023-04-03T02:13:59;8.87;;;5.47;;
13040;SDS011;6587;42.728;23.288;2023-04-03T02:16:26;7.03;;;4.63;;
13040;SDS011;6587;42.728;23.288;2023-04-03T02:18:53;5.30;;;3.90;;
13040;SDS011;6587;42.728;23.288;2023-04-03T02:21:20;6.00;;;3.57;;
13040;SDS011;6587;42.728;23.288;2023-04-03T02:23:48;10.23;;;5.53;;
13040;SDS011;6587;42.728;23.288;2023-04-03T02:26:15;5.20;;;3.70;;
13040;SDS011;6587;42.728;23.288;2023-04-03T02:28:44;4.40;;;3.70;;
13040;SDS011;6587;42.728;23.288;2023-04-03T02:31:11;5.17;;;3.70;;
13040;SDS011;6587;42.728;23.288;2023-04-03T02:33:40;9.00;;;5.30;;
13040;SDS011;6587;42.728;23.288;2023-04-03T02:36:09;10.20;;;6.00;;
13040;SDS011;6587;42.728;23.288;2023-04-03T02:38:38;11.87;;;5.63;;
13040;SDS011;6587;42.728;23.288;2023-04-03T02:41:06;8.87;;;6.30;;
13040;SDS011;6587;42.728;23.288;2023-04-03T02:43:33;10.60;;;6.50;;
13040;SDS011;6587;42.728;23.288;2023-04-03T02:46:02;8.97;;;6.27;;
13040;SDS011;6587;42.728;23.288;2023-04-03T02:48:29;11.47;;;6.90;;
13040;SDS011;6587;42.728;23.288;2023-04-03T02:50:55;9.00;;;6.13;;
13040;SDS011;6587;42.728;23.288;2023-04-03T02:53:22;10.93;;;6.70;;
13040;SDS011;6587;42.728;23.288;2023-04-03T02:55:49;7.70;;;5.33;;
13040;SDS011;6587;42.728;23.288;2023-04-03T02:58:17;11.87;;;6.10;;
13040;SDS011;6587;42.728;23.288;2023-04-03T03:00:44;6.93;;;5.47;;
13040;SDS011;6587;42.728;23.288;2023-04-03T03:03:11;6.17;;;4.70;;
13040;SDS011;6587;42.728;23.288;2023-04-03T03:05:38;10.90;;;6.10;;
13040;SDS011;6587;42.728;23.288;2023-04-03T03:08:05;9.60;;;6.00;;
13040;SDS011;6587;42.728;23.288;2023-04-03T03:10:32;14.03;;;6.40;;
13040;SDS011;6587;42.728;23.288;2023-04-03T03:12:58;10.23;;;6.30;;
13040;SDS011;6587;42.728;23.288;2023-04-03T03:15:29;12.33;;;6.93;;
13040;SDS011;6587;42.728;23.288;2023-04-03T03:17:56;14.93;;;8.07;;
13040;SDS011;6587;42.728;23.288;2023-04-03T03:20:22;22.00;;;8.47;;
13040;SDS011;6587;42.728;23.288;2023-04-03T03:22:49;18.77;;;9.67;;
13040;SDS011;6587;42.728;23.288;2023-04-03T03:25:15;20.40;;;9.97;;
13040;SDS011;6587;42.728;23.288;2023-04-03T03:27:42;21.97;;;10.20;;
13040;SDS011;6587;42.728;23.288;2023-04-03T03:30:09;20.63;;;10.20;;
13040;SDS011;6587;42.728;23.288;2023-04-03T03:32:37;21.57;;;11.13;;
13040;SDS011;6587;42.728;23.288;2023-04-03T03:35:04;23.27;;;14.30;;
13040;SDS011;6587;42.728;23.288;2023-04-03T03:37:31;31.30;;;16.73;;
13040;SDS011;6587;42.728;23.288;2023-04-03T03:39:57;21.07;;;15.10;;
13040;SDS011;6587;42.728;23.288;2023-04-03T03:42:24;26.30;;;18.83;;
13040;SDS011;6587;42.728;23.288;2023-04-03T03:44:51;29.73;;;20.20;;
13040;SDS011;6587;42.728;23.288;2023-04-03T03:47:18;29.80;;;20.33;;
13040;SDS011;6587;42.728;23.288;2023-04-03T03:49:47;32.83;;;17.43;;
13040;SDS011;6587;42.728;23.288;2023-04-03T03:52:14;23.43;;;13.60;;
13040;SDS011;6587;42.728;23.288;2023-04-03T03:54:41;21.67;;;12.27;;
13040;SDS011;6587;42.728;23.288;2023-04-03T03:57:08;29.37;;;12.90;;
13040;SDS011;6587;42.728;23.288;2023-04-03T03:59:35;27.97;;;13.17;;
13040;SDS011;6587;42.728;23.288;2023-04-03T04:02:01;27.27;;;11.87;;
13040;SDS011;6587;42.728;23.288;2023-04-03T04:04:28;27.67;;;16.63;;
13040;SDS011;6587;42.728;23.288;2023-04-03T04:06:56;26.87;;;15.40;;
13040;SDS011;6587;42.728;23.288;2023-04-03T04:09:23;27.70;;;15.20;;
13040;SDS011;6587;42.728;23.288;2023-04-03T04:11:50;25.63;;;15.57;;
13040;SDS011;6587;42.728;23.288;2023-04-03T04:14:17;27.23;;;14.30;;
13040;SDS011;6587;42.728;23.288;2023-04-03T04:16:46;35.93;;;18.23;;
13040;SDS011;6587;42.728;23.288;2023-04-03T04:19:19;41.87;;;21.63;;
13040;SDS011;6587;42.728;23.288;2023-04-03T04:21:46;38.70;;;19.07;;
13040;SDS011;6587;42.728;23.288;2023-04-03T04:24:14;31.63;;;15.43;;
13040;SDS011;6587;42.728;23.288;2023-04-03T04:26:41;30.00;;;14.33;;
13040;SDS011;6587;42.728;23.288;2023-04-03T04:29:11;32.60;;;18.23;;
13040;SDS011;6587;42.728;23.288;2023-04-03T04:31:37;25.20;;;12.77;;
13040;SDS011;6587;42.728;23.288;2023-04-03T04:34:05;19.73;;;11.10;;
13040;SDS011;6587;42.728;23.288;2023-04-03T04:36:32;23.73;;;13.03;;
13040;SDS011;6587;42.728;23.288;2023-04-03T04:38:58;28.20;;;14.93;;
13040;SDS011;6587;42.728;23.288;2023-04-03T04:41:27;43.37;;;25.07;;
13040;SDS011;6587;42.728;23.288;2023-04-03T04:43:54;77.80;;;49.53;;
13040;SDS011;6587;42.728;23.288;2023-04-03T04:46:22;74.27;;;50.17;;
13040;SDS011;6587;42.728;23.288;2023-04-03T04:48:53;57.50;;;39.37;;
13040;SDS011;6587;42.728;23.288;2023-04-03T04:51:21;42.13;;;22.87;;
13040;SDS011;6587;42.728;23.288;2023-04-03T04:53:48;34.13;;;20.23;;
13040;SDS011;6587;42.728;23.288;2023-04-03T04:56:17;36.87;;;20.77;;
13040;SDS011;6587;42.728;23.288;2023-04-03T04:58:46;35.90;;;23.40;;
13040;SDS011;6587;42.728;23.288;2023-04-03T05:01:14;43.10;;;23.63;;
13040;SDS011;6587;42.728;23.288;2023-04-03T05:03:52;29.17;;;18.60;;
13040;SDS011;6587;42.728;23.288;2023-04-03T05:06:19;32.07;;;17.70;;
13040;SDS011;6587;42.728;23.288;2023-04-03T05:08:46;52.10;;;26.53;;
13040;SDS011;6587;42.728;23.288;2023-04-03T05:11:13;27.70;;;18.23;;
13040;SDS011;6587;42.728;23.288;2023-04-03T05:13:41;24.20;;;14.87;;
13040;SDS011;6587;42.728;23.288;2023-04-03T05:16:09;36.20;;;17.23;;
13040;SDS011;6587;42.728;23.288;2023-04-03T05:18:37;33.70;;;17.00;;
13040;SDS011;6587;42.728;23.288;2023-04-03T05:21:08;34.33;;;15.47;;
13040;SDS011;6587;42.728;23.288;2023-04-03T05:23:35;25.70;;;13.30;;
13040;SDS011;6587;42.728;23.288;2023-04-03T05:26:03;28.47;;;13.20;;
13040;SDS011;6587;42.728;23.288;2023-04-03T05:28:30;24.27;;;13.63;;
13040;SDS011;6587;42.728;23.288;2023-04-03T05:30:57;20.17;;;11.37;;
13040;SDS011;6587;42.728;23.288;2023-04-03T05:33:30;23.30;;;12.37;;
13040;SDS011;6587;42.728;23.288;2023-04-03T05:36:01;21.27;;;10.87;;
13040;SDS011;6587;42.728;23.288;2023-04-03T05:38:30;22.57;;;10.70;;
13040;SDS011;6587;42.728;23.288;2023-04-03T05:40:57;19.03;;;9.93;;
13040;SDS011;6587;42.728;23.288;2023-04-03T05:43:24;16.93;;;10.13;;
13040;SDS011;6587;42.728;23.288;2023-04-03T05:45:51;23.93;;;11.13;;
13040;SDS011;6587;42.728;23.288;2023-04-03T05:48:19;19.50;;;11.33;;
13040;SDS011;6587;42.728;23.288;2023-04-03T05:50:48;20.30;;;12.30;;
13040;SDS011;6587;42.728;23.288;2023-04-03T05:53:21;26.77;;;11.33;;
13040;SDS011;6587;42.728;23.288;2023-04-03T05:55:48;18.33;;;12.20;;
13040;SDS011;6587;42.728;23.288;2023-04-03T05:58:15;30.17;;;12.53;;
13040;SDS011;6587;42.728;23.288;2023-04-03T06:00:44;22.63;;;11.77;;
13040;SDS011;6587;42.728;23.288;2023-04-03T06:03:11;20.43;;;9.70;;
13040;SDS011;6587;42.728;23.288;2023-04-03T06:05:38;17.67;;;8.07;;
13040;SDS011;6587;42.728;23.288;2023-04-03T06:08:06;13.63;;;8.10;;
13040;SDS011;6587;42.728;23.288;2023-04-03T06:10:34;15.03;;;8.13;;
13040;SDS011;6587;42.728;23.288;2023-04-03T06:13:01;12.27;;;7.63;;
13040;SDS011;6587;42.728;23.288;2023-04-03T06:15:28;19.23;;;8.63;;
13040;SDS011;6587;42.728;23.288;2023-04-03T06:17:54;16.10;;;8.47;;
13040;SDS011;6587;42.728;23.288;2023-04-03T06:20:21;12.70;;;8.77;;
13040;SDS011;6587;42.728;23.288;2023-04-03T06:22:48;16.23;;;9.40;;
13040;SDS011;6587;42.728;23.288;2023-04-03T06:25:17;22.10;;;10.63;;
13040;SDS011;6587;42.728;23.288;2023-04-03T06:27:44;20.63;;;12.07;;
13040;SDS011;6587;42.728;23.288;2023-04-03T06:30:10;24.33;;;13.67;;
13040;SDS011;6587;42.728;23.288;2023-04-03T06:32:37;24.17;;;11.77;;
13040;SDS011;6587;42.728;23.288;2023-04-03T06:35:04;12.67;;;9.13;;
13040;SDS011;6587;42.728;23.288;2023-04-03T06:37:31;11.67;;;7.80;;
13040;SDS011;6587;42.728;23.288;2023-04-03T06:39:58;10.73;;;7.63;;
13040;SDS011;6587;42.728;23.288;2023-04-03T06:42:26;10.40;;;7.17;;
13040;SDS011;6587;42.728;23.288;2023-04-03T06:45:10;11.07;;;7.97;;
13040;SDS011;6587;42.728;23.288;2023-04-03T06:47:37;12.70;;;8.67;;
13040;SDS011;6587;42.728;23.288;2023-04-03T06:50:03;17.53;;;10.17;;
13040;SDS011;6587;42.728;23.288;2023-04-03T06:52:31;10.60;;;8.10;;
13040;SDS011;6587;42.728;23.288;2023-04-03T06:54:58;14.43;;;9.20;;
13040;SDS011;6587;42.728;23.288;2023-04-03T06:57:26;18.80;;;9.07;;
13040;SDS011;6587;42.728;23.288;2023-04-03T06:59:53;13.37;;;8.47;;
13040;SDS011;6587;42.728;23.288;2023-04-03T07:02:20;11.60;;;8.47;;
13040;SDS011;6587;42.728;23.288;2023-04-03T07:04:47;14.43;;;9.13;;
13040;SDS011;6587;42.728;23.288;2023-04-03T07:07:14;20.63;;;11.33;;
13040;SDS011;6587;42.728;23.288;2023-04-03T07:09:42;19.30;;;11.80;;
13040;SDS011;6587;42.728;23.288;2023-04-03T07:12:09;19.37;;;12.77;;
13040;SDS011;6587;42.728;23.288;2023-04-03T07:14:37;20.77;;;12.47;;
13040;SDS011;6587;42.728;23.288;2023-04-03T07:17:04;19.27;;;13.33;;
13040;SDS011;6587;42.728;23.288;2023-04-03T07:19:30;24.77;;;14.37;;
13040;SDS011;6587;42.728;23.288;2023-04-03T07:21:57;23.37;;;15.47;;
13040;SDS011;6587;42.728;23.288;2023-04-03T07:24:24;23.03;;;12.73;;
13040;SDS011;6587;42.728;23.288;2023-04-03T07:26:51;18.70;;;12.43;;
13040;SDS011;6587;42.728;23.288;2023-04-03T07:29:18;25.10;;;17.90;;
13040;SDS011;6587;42.728;23.288;2023-04-03T07:31:46;33.10;;;22.43;;
13040;SDS011;6587;42.728;23.288;2023-04-03T07:34:13;28.83;;;20.57;;
13040;SDS011;6587;42.728;23.288;2023-04-03T07:36:40;26.63;;;18.33;;
13040;SDS011;6587;42.728;23.288;2023-04-03T07:39:06;17.23;;;11.40;;
13040;SDS011;6587;42.728;23.288;2023-04-03T07:41:33;17.43;;;12.03;;
13040;SDS011;6587;42.728;23.288;2023-04-03T07:44:00;20.27;;;10.70;;
13040;SDS011;6587;42.728;23.288;2023-04-03T07:46:26;14.00;;;8.60;;
13040;SDS011;6587;42.728;23.288;2023-04-03T07:48:54;16.70;;;9.17;;
13040;SDS011;6587;42.728;23.288;2023-04-03T07:51:21;15.83;;;8.93;;
13040;SDS011;6587;42.728;23.288;2023-04-03T07:53:49;15.43;;;9.07;;
13040;SDS011;6587;42.728;23.288;2023-04-03T07:56:15;13.67;;;9.57;;
13040;SDS011;6587;42.728;23.288;2023-04-03T07:58:42;14.00;;;8.53;;
13040;SDS011;6587;42.728;23.288;2023-04-03T08:01:09;11.57;;;9.50;;
13040;SDS011;6587;42.728;23.288;2023-04-03T08:03:36;19.67;;;9.73;;
13040;SDS011;6587;42.728;23.288;2023-04-03T08:06:04;12.50;;;8.47;;
13040;SDS011;6587;42.728;23.288;2023-04-03T08:08:32;14.63;;;8.40;;
13040;SDS011;6587;42.728;23.288;2023-04-03T08:10:59;12.10;;;7.63;;
13040;SDS011;6587;42.728;23.288;2023-04-03T08:13:27;14.23;;;7.83;;
13040;SDS011;6587;42.728;23.288;2023-04-03T08:15:54;12.57;;;7.90;;
13040;SDS011;6587;42.728;23.288;2023-04-03T08:18:22;10.47;;;7.67;;
13040;SDS011;6587;42.728;23.288;2023-04-03T08:20:49;13.70;;;8.43;;
13040;SDS011;6587;42.728;23.288;2023-04-03T08:23:17;13.60;;;7.77;;
13040;SDS011;6587;42.728;23.288;2023-04-03T08:25:44;11.47;;;6.97;;
13040;SDS011;6587;42.728;23.288;2023-04-03T08:28:11;15.30;;;7.87;;
13040;SDS011;6587;42.728;23.288;2023-04-03T08:30:38;14.00;;;8.03;;
13040;SDS011;6587;42.728;23.288;2023-04-03T08:33:05;11.00;;;7.97;;
13040;SDS011;6587;42.728;23.288;2023-04-03T08:35:32;18.30;;;9.20;;
13040;SDS011;6587;42.728;23.288;2023-04-03T08:37:59;9.60;;;8.00;;
13040;SDS011;6587;42.728;23.288;2023-04-03T08:40:27;15.57;;;9.30;;
13040;SDS011;6587;42.728;23.288;2023-04-03T08:42:57;14.03;;;9.13;;
13040;SDS011;6587;42.728;23.288;2023-04-03T08:45:27;12.50;;;8.73;;
13040;SDS011;6587;42.728;23.288;2023-04-03T08:48:00;23.23;;;10.80;;
13040;SDS011;6587;42.728;23.288;2023-04-03T08:50:28;19.87;;;10.37;;
13040;SDS011;6587;42.728;23.288;2023-04-03T08:52:57;18.70;;;10.37;;
13040;SDS011;6587;42.728;23.288;2023-04-03T08:55:24;18.77;;;10.27;;
13040;SDS011;6587;42.728;23.288;2023-04-03T08:57:57;13.93;;;9.97;;
13040;SDS011;6587;42.728;23.288;2023-04-03T09:00:25;19.40;;;10.27;;
13040;SDS011;6587;42.728;23.288;2023-04-03T09:02:53;19.50;;;10.83;;
13040;SDS011;6587;42.728;23.288;2023-04-03T09:05:24;27.23;;;13.00;;
13040;SDS011;6587;42.728;23.288;2023-04-03T09:07:57;20.70;;;11.80;;
13040;SDS011;6587;42.728;23.288;2023-04-03T09:10:27;18.37;;;12.10;;
13040;SDS011;6587;42.728;23.288;2023-04-03T09:12:57;21.17;;;12.27;;
13040;SDS011;6587;42.728;23.288;2023-04-03T09:15:26;22.17;;;12.70;;
13040;SDS011;6587;42.728;23.288;2023-04-03T09:17:57;20.57;;;12.37;;
13040;SDS011;6587;42.728;23.288;2023-04-03T09:20:26;22.60;;;11.80;;
13040;SDS011;6587;42.728;23.288;2023-04-03T09:22:56;19.83;;;11.93;;
13040;SDS011;6587;42.728;23.288;2023-04-03T09:25:23;17.60;;;10.70;;
13040;SDS011;6587;42.728;23.288;2023-04-03T09:27:51;22.47;;;11.23;;
13040;SDS011;6587;42.728;23.288;2023-04-03T09:30:20;18.87;;;11.20;;
13040;SDS011;6587;42.728;23.288;2023-04-03T09:32:49;23.27;;;12.67;;
13040;SDS011;6587;42.728;23.288;2023-04-03T09:35:17;20.10;;;12.80;;
13040;SDS011;6587;42.728;23.288;2023-04-03T09:37:45;25.43;;;12.80;;
13040;SDS011;6587;42.728;23.288;2023-04-03T09:40:27;18.30;;;11.17;;
13040;SDS011;6587;42.728;23.288;2023-04-03T09:42:55;24.13;;;12.97;;
13040;SDS011;6587;42.728;23.288;2023-04-03T09:45:24;21.20;;;13.97;;
13040;SDS011;6587;42.728;23.288;2023-04-03T09:48:06;22.17;;;14.60;;
13040;SDS011;6587;42.728;23.288;2023-04-03T09:50:33;24.73;;;14.93;;
13040;SDS011;6587;42.728;23.288;2023-04-03T09:53:04;25.77;;;15.20;;
13040;SDS011;6587;42.728;23.288;2023-04-03T09:55:31;23.70;;;15.83;;
13040;SDS011;6587;42.728;23.288;2023-04-03T09:57:58;23.63;;;14.40;;
13040;SDS011;6587;42.728;23.288;2023-04-03T10:00:35;28.20;;;14.63;;
13040;SDS011;6587;42.728;23.288;2023-04-03T10:03:02;21.73;;;13.50;;
13040;SDS011;6587;42.728;23.288;2023-04-03T10:05:32;29.93;;;15.43;;
13040;SDS011;6587;42.728;23.288;2023-04-03T10:08:09;19.47;;;13.60;;
13040;SDS011;6587;42.728;23.288;2023-04-03T10:10:36;23.43;;;14.20;;
13040;SDS011;6587;42.728;23.288;2023-04-03T10:13:04;23.00;;;14.83;;
13040;SDS011;6587;42.728;23.288;2023-04-03T10:15:33;26.87;;;18.60;;
13040;SDS011;6587;42.728;23.288;2023-04-03T10:18:02;19.33;;;12.33;;
13040;SDS011;6587;42.728;23.288;2023-04-03T10:20:33;18.73;;;12.20;;
13040;SDS011;6587;42.728;23.288;2023-04-03T10:23:05;15.73;;;10.40;;
13040;SDS011;6587;42.728;23.288;2023-04-03T10:25:40;18.27;;;10.47;;
13040;SDS011;6587;42.728;23.288;2023-04-03T10:28:08;15.33;;;9.90;;
13040;SDS011;6587;42.728;23.288;2023-04-03T10:30:41;16.80;;;10.77;;
13040;SDS011;6587;42.728;23.288;2023-04-03T10:33:18;16.80;;;9.40;;
13040;SDS011;6587;42.728;23.288;2023-04-03T10:35:48;14.47;;;8.70;;
13040;SDS011;6587;42.728;23.288;2023-04-03T10:38:19;12.97;;;9.03;;
13040;SDS011;6587;42.728;23.288;2023-04-03T10:40:50;15.00;;;9.50;;
13040;SDS011;6587;42.728;23.288;2023-04-03T10:43:19;13.37;;;9.13;;
13040;SDS011;6587;42.728;23.288;2023-04-03T10:45:57;14.10;;;8.53;;
13040;SDS011;6587;42.728;23.288;2023-04-03T10:48:35;15.87;;;7.83;;
13040;SDS011;6587;42.728;23.288;2023-04-03T10:51:07;13.00;;;7.70;;
13040;SDS011;6587;42.728;23.288;2023-04-03T10:53:36;19.77;;;8.80;;
13040;SDS011;6587;42.728;23.288;2023-04-03T10:56:07;14.23;;;7.47;;
13040;SDS011;6587;42.728;23.288;2023-04-03T10:58:38;12.33;;;7.70;;
13040;SDS011;6587;42.728;23.288;2023-04-03T11:01:07;11.80;;;7.17;;
13040;SDS011;6587;42.728;23.288;2023-04-03T11:03:35;17.03;;;6.77;;
13040;SDS011;6587;42.728;23.288;2023-04-03T11:06:04;11.80;;;6.20;;
13040;SDS011;6587;42.728;23.288;2023-04-03T11:08:33;10.40;;;6.17;;
13040;SDS011;6587;42.728;23.288;2023-04-03T11:11:02;6.77;;;5.70;;
13040;SDS011;6587;42.728;23.288;2023-04-03T11:13:32;8.53;;;5.53;;
13040;SDS011;6587;42.728;23.288;2023-04-03T11:15:59;9.17;;;5.70;;
13040;SDS011;6587;42.728;23.288;2023-04-03T11:18:28;10.50;;;6.30;;
13040;SDS011;6587;42.728;23.288;2023-04-03T11:20:59;8.87;;;5.73;;
13040;SDS011;6587;42.728;23.288;2023-04-03T11:23:29;9.40;;;5.47;;
13040;SDS011;6587;42.728;23.288;2023-04-03T11:25:59;11.63;;;6.73;;
13040;SDS011;6587;42.728;23.288;2023-04-03T11:28:31;9.57;;;6.53;;
13040;SDS011;6587;42.728;23.288;2023-04-03T11:31:01;11.87;;;6.50;;
13040;SDS011;6587;42.728;23.288;2023-04-03T11:33:32;11.70;;;6.97;;
13040;SDS011;6587;42.728;23.288;2023-04-03T11:36:04;64.67;;;39.23;;
13040;SDS011;6587;42.728;23.288;2023-04-03T11:38:33;12.20;;;6.57;;
13040;SDS011;6587;42.728;23.288;2023-04-03T11:41:01;7.67;;;5.17;;
13040;SDS011;6587;42.728;23.288;2023-04-03T11:43:29;7.07;;;4.97;;
13040;SDS011;6587;42.728;23.288;2023-04-03T11:45:57;6.10;;;4.57;;
13040;SDS011;6587;42.728;23.288;2023-04-03T11:48:47;6.83;;;4.67;;
13040;SDS011;6587;42.728;23.288;2023-04-03T11:56:42;7.10;;;5.10;;
13040;SDS011;6587;42.728;23.288;2023-04-03T11:59:16;10.17;;;6.00;;
13040;SDS011;6587;42.728;23.288;2023-04-03T12:01:45;6.70;;;5.67;;
13040;SDS011;6587;42.728;23.288;2023-04-03T12:04:14;8.33;;;5.30;;
13040;SDS011;6587;42.728;23.288;2023-04-03T12:06:52;9.93;;;5.90;;
13040;SDS011;6587;42.728;23.288;2023-04-03T12:09:23;8.67;;;5.83;;
13040;SDS011;6587;42.728;23.288;2023-04-03T12:11:51;7.50;;;5.63;;
13040;SDS011;6587;42.728;23.288;2023-04-03T12:14:18;9.73;;;6.83;;
13040;SDS011;6587;42.728;23.288;2023-04-03T12:16:45;8.50;;;6.57;;
13040;SDS011;6587;42.728;23.288;2023-04-03T12:22:11;8.83;;;7.10;;
13040;SDS011;6587;42.728;23.288;2023-04-03T12:24:39;10.03;;;6.90;;
13040;SDS011;6587;42.728;23.288;2023-04-03T12:29:49;11.03;;;7.03;;
13040;SDS011;6587;42.728;23.288;2023-04-03T12:32:21;11.00;;;6.43;;
13040;SDS011;6587;42.728;23.288;2023-04-03T12:35:03;10.00;;;6.50;;
13040;SDS011;6587;42.728;23.288;2023-04-03T12:37:43;7.03;;;5.40;;
13040;SDS011;6587;42.728;23.288;2023-04-03T12:40:15;6.37;;;5.23;;
13040;SDS011;6587;42.728;23.288;2023-04-03T12:42:52;8.20;;;5.20;;
13040;SDS011;6587;42.728;23.288;2023-04-03T12:45:23;5.83;;;5.17;;
13040;SDS011;6587;42.728;23.288;2023-04-03T12:47:51;6.40;;;5.53;;
13040;SDS011;6587;42.728;23.288;2023-04-03T12:50:20;6.60;;;5.60;;
13040;SDS011;6587;42.728;23.288;2023-04-03T12:52:51;7.57;;;5.10;;
13040;SDS011;6587;42.728;23.288;2023-04-03T12:55:21;7.27;;;5.23;;
13040;SDS011;6587;42.728;23.288;2023-04-03T12:57:48;11.80;;;6.77;;
13040;SDS011;6587;42.728;23.288;2023-04-03T13:00:18;8.67;;;6.50;;
13040;SDS011;6587;42.728;23.288;2023-04-03T13:02:45;7.13;;;5.70;;
13040;SDS011;6587;42.728;23.288;2023-04-03T13:05:13;11.17;;;6.83;;
13040;SDS011;6587;42.728;23.288;2023-04-03T13:07:41;8.73;;;6.30;;
13040;SDS011;6587;42.728;23.288;2023-04-03T13:10:15;8.13;;;6.13;;
13040;SDS011;6587;42.728;23.288;2023-04-03T13:12:46;6.70;;;5.93;;
13040;SDS011;6587;42.728;23.288;2023-04-03T13:15:14;8.50;;;6.67;;
13040;SDS011;6587;42.728;23.288;2023-04-03T13:17:42;8.57;;;6.93;;
13040;SDS011;6587;42.728;23.288;2023-04-03T13:20:11;10.90;;;7.27;;
13040;SDS011;6587;42.728;23.288;2023-04-03T13:22:38;9.60;;;7.37;;
13040;SDS011;6587;42.728;23.288;2023-04-03T13:25:09;12.97;;;8.60;;
13040;SDS011;6587;42.728;23.288;2023-04-03T13:27:37;13.93;;;9.00;;
13040;SDS011;6587;42.728;23.288;2023-04-03T13:30:17;11.87;;;9.73;;
13040;SDS011;6587;42.728;23.288;2023-04-03T13:32:46;13.83;;;9.30;;
13040;SDS011;6587;42.728;23.288;2023-04-03T13:35:28;13.00;;;9.50;;
13040;SDS011;6587;42.728;23.288;2023-04-03T13:37:56;13.93;;;9.33;;
13040;SDS011;6587;42.728;23.288;2023-04-03T13:40:24;15.27;;;9.40;;
13040;SDS011;6587;42.728;23.288;2023-04-03T13:42:59;13.33;;;9.50;;
13040;SDS011;6587;42.728;23.288;2023-04-03T13:45:27;15.33;;;10.23;;
13040;SDS011;6587;42.728;23.288;2023-04-03T13:48:06;13.97;;;10.50;;
13040;SDS011;6587;42.728;23.288;2023-04-03T13:50:48;13.67;;;10.00;;
13040;SDS011;6587;42.728;23.288;2023-04-03T13:53:16;15.97;;;10.63;;
13040;SDS011;6587;42.728;23.288;2023-04-03T13:55:51;12.70;;;9.93;;
13040;SDS011;6587;42.728;23.288;2023-04-03T13:58:23;16.40;;;11.20;;
13040;SDS011;6587;42.728;23.288;2023-04-03T14:00:51;16.50;;;11.03;;
13040;SDS011;6587;42.728;23.288;2023-04-03T14:03:19;17.47;;;11.47;;
13040;SDS011;6587;42.728;23.288;2023-04-03T14:05:46;19.47;;;11.10;;
13040;SDS011;6587;42.728;23.288;2023-04-03T14:08:13;15.37;;;10.77;;
13040;SDS011;6587;42.728;23.288;2023-04-03T14:10:39;15.70;;;11.03;;
13040;SDS011;6587;42.728;23.288;2023-04-03T14:13:08;13.03;;;10.60;;
13040;SDS011;6587;42.728;23.288;2023-04-03T14:15:36;13.43;;;9.60;;
13040;SDS011;6587;42.728;23.288;2023-04-03T14:18:03;11.73;;;8.83;;
13040;SDS011;6587;42.728;23.288;2023-04-03T14:20:30;9.10;;;7.70;;
13040;SDS011;6587;42.728;23.288;2023-04-03T14:22:56;10.20;;;7.20;;
13040;SDS011;6587;42.728;23.288;2023-04-03T14:25:23;8.97;;;6.20;;
13040;SDS011;6587;42.728;23.288;2023-04-03T14:27:51;7.03;;;6.27;;
13040;SDS011;6587;42.728;23.288;2023-04-03T14:30:20;9.67;;;6.40;;
13040;SDS011;6587;42.728;23.288;2023-04-03T14:32:48;7.17;;;6.33;;
13040;SDS011;6587;42.728;23.288;2023-04-03T14:35:14;8.17;;;5.93;;
13040;SDS011;6587;42.728;23.288;2023-04-03T14:37:42;6.90;;;6.03;;
13040;SDS011;6587;42.728;23.288;2023-04-03T14:40:11;6.83;;;5.60;;
13040;SDS011;6587;42.728;23.288;2023-04-03T14:42:38;7.10;;;6.13;;
13040;SDS011;6587;42.728;23.288;2023-04-03T14:45:06;8.87;;;6.13;;
13040;SDS011;6587;42.728;23.288;2023-04-03T14:47:33;8.43;;;6.27;;
13040;SDS011;6587;42.728;23.288;2023-04-03T14:50:03;8.73;;;6.03;;
13040;SDS011;6587;42.728;23.288;2023-04-03T14:52:31;7.70;;;6.50;;